<?xml version="1.0" encoding="UTF-8" standalone="no" ?>
<gpx xmlns="http://www.topografix.com/GPX/1/1" xmlns:xsi="http://www.w3.org/2001/XMLSchema-instance" xsi:schemaLocation="http://www.topografix.com/GPX/1/1 http://www.topografix.com/GPX/1/1/gpx.xsd" version="1.1" creator="VisuGPX - https://www.visugpx.com">
  <metadata>
    <name>Cazevieille - Pic Saint-Loup - col de la Pousterle</name>
    <desc><![CDATA[2016-03 - Cazevieille - Pic Saint-Loup - col de la Pousterle

[b]album[/b] : [url]https://goo.gl/photos/yBMaKKj7JkHcBLySA[/url]
[img]https://3.bp.blogspot.com/-T_MKr-PMwbs/WNGFdUANBBI/AAAAAAAARGc/MV0dPZWMubsK1RGfwU6uuoDVF9Xz0ZkIACLcB/s1600/2016-03_pic-st-loup_i.JPG[/img]
[b]Idées de randonnées dans la même région[/b]
Parcours : [url]https://www.visugpx.com/membres/24856/causses/garrigues-montpellier/[/url]
Photos : [url]https://jcvertygo.blogspot.com/p/nord-montpellier.html[/url]]]></desc>
  </metadata>
  <trk>
    <name><![CDATA[Cazevieille - Pic Saint-Loup - col de la Pousterle_1]]></name>
    <trkseg>
      <trkpt lat="43.77313" lon="3.79378">
        <ele>373.7</ele>
        <time>2016-03-21T10:05:09Z</time>
      </trkpt>
      <trkpt lat="43.77312" lon="3.79382">
        <ele>373.7</ele>
        <time>2016-03-21T10:05:14Z</time>
      </trkpt>
      <trkpt lat="43.77312" lon="3.79387">
        <ele>373.7</ele>
        <time>2016-03-21T10:05:19Z</time>
      </trkpt>
      <trkpt lat="43.77316" lon="3.79406">
        <ele>372.31563946026</ele>
        <time>2016-03-21T10:05:39Z</time>
      </trkpt>
      <trkpt lat="43.77321" lon="3.79407">
        <ele>372.31563946026</ele>
        <time>2016-03-21T10:05:44Z</time>
      </trkpt>
      <trkpt lat="43.7736" lon="3.79488">
        <ele>374.96419635952</ele>
        <time>2016-03-21T10:08:09Z</time>
      </trkpt>
      <trkpt lat="43.77371" lon="3.79505">
        <ele>377.7528550864</ele>
        <time>2016-03-21T10:08:34Z</time>
      </trkpt>
      <trkpt lat="43.7738" lon="3.79528">
        <ele>380.54059879508</ele>
        <time>2016-03-21T10:08:51Z</time>
      </trkpt>
      <trkpt lat="43.77418" lon="3.79596">
        <ele>383.90161275136</ele>
        <time>2016-03-21T10:09:44Z</time>
      </trkpt>
      <trkpt lat="43.77429" lon="3.7961">
        <ele>386.97497280072</ele>
        <time>2016-03-21T10:10:06Z</time>
      </trkpt>
      <trkpt lat="43.7745" lon="3.79693">
        <ele>391.31853718373</ele>
        <time>2016-03-21T10:11:19Z</time>
      </trkpt>
      <trkpt lat="43.77468" lon="3.79794">
        <ele>396.46227700584</ele>
        <time>2016-03-21T10:12:34Z</time>
      </trkpt>
      <trkpt lat="43.77484" lon="3.79844">
        <ele>401.28119977182</ele>
        <time>2016-03-21T10:13:44Z</time>
      </trkpt>
      <trkpt lat="43.77485" lon="3.79849">
        <ele>401.28119977182</ele>
        <time>2016-03-21T10:13:49Z</time>
      </trkpt>
      <trkpt lat="43.77517" lon="3.79984">
        <ele>405.77650228668</ele>
        <time>2016-03-21T10:15:31Z</time>
      </trkpt>
      <trkpt lat="43.77528" lon="3.80041">
        <ele>410.1283002625</ele>
        <time>2016-03-21T10:16:26Z</time>
      </trkpt>
      <trkpt lat="43.7753" lon="3.80048">
        <ele>410.1283002625</ele>
        <time>2016-03-21T10:16:26Z</time>
      </trkpt>
      <trkpt lat="43.77542" lon="3.80095">
        <ele>414.39506408579</ele>
        <time>2016-03-21T10:17:11Z</time>
      </trkpt>
      <trkpt lat="43.77553" lon="3.80137">
        <ele>418.51370018293</ele>
        <time>2016-03-21T10:17:41Z</time>
      </trkpt>
      <trkpt lat="43.77554" lon="3.80139">
        <ele>418.51370018293</ele>
        <time>2016-03-21T10:17:44Z</time>
      </trkpt>
      <trkpt lat="43.77558" lon="3.80156">
        <ele>422.27865089338</ele>
        <time>2016-03-21T10:18:01Z</time>
      </trkpt>
      <trkpt lat="43.77558" lon="3.80168">
        <ele>422.27865089338</ele>
        <time>2016-03-21T10:18:09Z</time>
      </trkpt>
      <trkpt lat="43.77565" lon="3.80237">
        <ele>426.53806877207</ele>
        <time>2016-03-21T10:19:01Z</time>
      </trkpt>
      <trkpt lat="43.77568" lon="3.80298">
        <ele>430.50117883978</ele>
        <time>2016-03-21T10:20:00Z</time>
      </trkpt>
      <trkpt lat="43.77572" lon="3.80343">
        <ele>433.93818344793</ele>
        <time>2016-03-21T10:20:28Z</time>
      </trkpt>
      <trkpt lat="43.77572" lon="3.80344">
        <ele>433.93818344793</ele>
        <time>2016-03-21T10:20:35Z</time>
      </trkpt>
      <trkpt lat="43.77571" lon="3.80381">
        <ele>437.16905601067</ele>
        <time>2016-03-21T10:21:09Z</time>
      </trkpt>
      <trkpt lat="43.77577" lon="3.80422">
        <ele>440.19076116801</ele>
        <time>2016-03-21T10:21:40Z</time>
      </trkpt>
      <trkpt lat="43.77576" lon="3.80427">
        <ele>440.19076116801</ele>
        <time>2016-03-21T10:21:44Z</time>
      </trkpt>
      <trkpt lat="43.7759" lon="3.80559">
        <ele>444.00547967232</ele>
        <time>2016-03-21T10:23:27Z</time>
      </trkpt>
      <trkpt lat="43.77589" lon="3.80572">
        <ele>447.34870584322</ele>
        <time>2016-03-21T10:23:27Z</time>
      </trkpt>
      <trkpt lat="43.77609" lon="3.80707">
        <ele>450.9154283892</ele>
        <time>2016-03-21T10:25:04Z</time>
      </trkpt>
      <trkpt lat="43.77627" lon="3.80753">
        <ele>454.18635029999</ele>
        <time>2016-03-21T10:25:39Z</time>
      </trkpt>
      <trkpt lat="43.77631" lon="3.80759">
        <ele>454.18635029999</ele>
        <time>2016-03-21T10:25:44Z</time>
      </trkpt>
      <trkpt lat="43.77645" lon="3.80802">
        <ele>457.44625802199</ele>
        <time>2016-03-21T10:26:33Z</time>
      </trkpt>
      <trkpt lat="43.77649" lon="3.80816">
        <ele>460.31757159226</ele>
        <time>2016-03-21T10:26:33Z</time>
      </trkpt>
      <trkpt lat="43.77654" lon="3.80836">
        <ele>462.85547688423</ele>
        <time>2016-03-21T10:26:50Z</time>
      </trkpt>
      <trkpt lat="43.77682" lon="3.80976">
        <ele>466.5175060087</ele>
        <time>2016-03-21T10:28:45Z</time>
      </trkpt>
      <trkpt lat="43.77685" lon="3.80986">
        <ele>466.5175060087</ele>
        <time>2016-03-21T10:28:54Z</time>
      </trkpt>
      <trkpt lat="43.77665" lon="3.81106">
        <ele>471.63139523017</ele>
        <time>2016-03-21T10:30:36Z</time>
      </trkpt>
      <trkpt lat="43.77664" lon="3.81109">
        <ele>471.63139523017</ele>
        <time>2016-03-21T10:30:39Z</time>
      </trkpt>
      <trkpt lat="43.77677" lon="3.81207">
        <ele>477.99239346566</ele>
        <time>2016-03-21T10:32:13Z</time>
      </trkpt>
      <trkpt lat="43.77679" lon="3.81215">
        <ele>477.99239346566</ele>
        <time>2016-03-21T10:32:13Z</time>
      </trkpt>
      <trkpt lat="43.77673" lon="3.81277">
        <ele>484.98894639661</ele>
        <time>2016-03-21T10:33:38Z</time>
      </trkpt>
      <trkpt lat="43.77673" lon="3.81278">
        <ele>484.98894639661</ele>
        <time>2016-03-21T10:33:39Z</time>
      </trkpt>
      <trkpt lat="43.77704" lon="3.81377">
        <ele>492.90103008896</ele>
        <time>2016-03-21T10:35:15Z</time>
      </trkpt>
      <trkpt lat="43.77709" lon="3.81377">
        <ele>492.90103008896</ele>
        <time>2016-03-21T10:35:19Z</time>
      </trkpt>
      <trkpt lat="43.77718" lon="3.81374">
        <ele>500.64262299026</ele>
        <time>2016-03-21T10:35:43Z</time>
      </trkpt>
      <trkpt lat="43.77731" lon="3.81371">
        <ele>508.16708286745</ele>
        <time>2016-03-21T10:36:13Z</time>
      </trkpt>
      <trkpt lat="43.77736" lon="3.81365">
        <ele>508.16708286745</ele>
        <time>2016-03-21T10:36:38Z</time>
      </trkpt>
      <trkpt lat="43.77744" lon="3.81371">
        <ele>515.72072826474</ele>
        <time>2016-03-21T10:37:23Z</time>
      </trkpt>
      <trkpt lat="43.77759" lon="3.81351">
        <ele>522.93233309151</ele>
        <time>2016-03-21T10:37:39Z</time>
      </trkpt>
      <trkpt lat="43.77776" lon="3.81303">
        <ele>530.51637534392</ele>
        <time>2016-03-21T10:38:57Z</time>
      </trkpt>
      <trkpt lat="43.77778" lon="3.81296">
        <ele>530.51637534392</ele>
        <time>2016-03-21T10:38:57Z</time>
      </trkpt>
      <trkpt lat="43.77794" lon="3.81278">
        <ele>538.58227650004</ele>
        <time>2016-03-21T10:40:15Z</time>
      </trkpt>
      <trkpt lat="43.77799" lon="3.81277">
        <ele>538.58227650004</ele>
        <time>2016-03-21T10:40:31Z</time>
      </trkpt>
      <trkpt lat="43.77808" lon="3.81232">
        <ele>546.55185267875</ele>
        <time>2016-03-21T10:40:54Z</time>
      </trkpt>
      <trkpt lat="43.77809" lon="3.81218">
        <ele>553.90443016105</ele>
        <time>2016-03-21T10:41:14Z</time>
      </trkpt>
      <trkpt lat="43.77814" lon="3.8123">
        <ele>560.64942116188</ele>
        <time>2016-03-21T10:41:22Z</time>
      </trkpt>
      <trkpt lat="43.77815" lon="3.81247">
        <ele>566.88465284864</ele>
        <time>2016-03-21T10:41:39Z</time>
      </trkpt>
      <trkpt lat="43.77819" lon="3.81245">
        <ele>566.88465284864</ele>
        <time>2016-03-21T10:41:47Z</time>
      </trkpt>
      <trkpt lat="43.77821" lon="3.81246">
        <ele>566.88465284864</ele>
        <time>2016-03-21T10:41:57Z</time>
      </trkpt>
      <trkpt lat="43.77831" lon="3.81246">
        <ele>572.89502442552</ele>
        <time>2016-03-21T10:42:16Z</time>
      </trkpt>
      <trkpt lat="43.77832" lon="3.81243">
        <ele>572.89502442552</ele>
        <time>2016-03-21T10:42:20Z</time>
      </trkpt>
      <trkpt lat="43.77838" lon="3.81237">
        <ele>578.49806244847</ele>
        <time>2016-03-21T10:42:45Z</time>
      </trkpt>
      <trkpt lat="43.77844" lon="3.81232">
        <ele>578.49806244847</ele>
        <time>2016-03-21T10:43:04Z</time>
      </trkpt>
      <trkpt lat="43.77848" lon="3.81234">
        <ele>583.84820528767</ele>
        <time>2016-03-21T10:43:04Z</time>
      </trkpt>
      <trkpt lat="43.77854" lon="3.81241">
        <ele>583.84820528767</ele>
        <time>2016-03-21T10:43:29Z</time>
      </trkpt>
      <trkpt lat="43.7786" lon="3.81223">
        <ele>589.33083460909</ele>
        <time>2016-03-21T10:43:45Z</time>
      </trkpt>
      <trkpt lat="43.77865" lon="3.81216">
        <ele>589.33083460909</ele>
        <time>2016-03-21T10:44:04Z</time>
      </trkpt>
      <trkpt lat="43.7787" lon="3.8119">
        <ele>594.99624351688</ele>
        <time>2016-03-21T10:44:41Z</time>
      </trkpt>
      <trkpt lat="43.77869" lon="3.8118">
        <ele>594.99624351688</ele>
        <time>2016-03-21T10:44:41Z</time>
      </trkpt>
      <trkpt lat="43.77881" lon="3.81147">
        <ele>601.33965223608</ele>
        <time>2016-03-21T10:45:56Z</time>
      </trkpt>
      <trkpt lat="43.77883" lon="3.81148">
        <ele>601.33965223608</ele>
        <time>2016-03-21T10:45:59Z</time>
      </trkpt>
      <trkpt lat="43.77885" lon="3.81149">
        <ele>601.33965223608</ele>
        <time>2016-03-21T10:46:14Z</time>
      </trkpt>
      <trkpt lat="43.77889" lon="3.81154">
        <ele>607.44096350416</ele>
        <time>2016-03-21T10:46:36Z</time>
      </trkpt>
      <trkpt lat="43.77893" lon="3.81147">
        <ele>607.44096350416</ele>
        <time>2016-03-21T10:46:56Z</time>
      </trkpt>
      <trkpt lat="43.77893" lon="3.81146">
        <ele>607.44096350416</ele>
        <time>2016-03-21T10:46:56Z</time>
      </trkpt>
      <trkpt lat="43.77906" lon="3.8115">
        <ele>614.99897944459</ele>
        <time>2016-03-21T10:48:03Z</time>
      </trkpt>
      <trkpt lat="43.77905" lon="3.81157">
        <ele>614.99897944459</ele>
        <time>2016-03-21T10:48:04Z</time>
      </trkpt>
      <trkpt lat="43.77908" lon="3.81169">
        <ele>622.0474470864</ele>
        <time>2016-03-21T10:48:23Z</time>
      </trkpt>
      <trkpt lat="43.7791" lon="3.81172">
        <ele>622.0474470864</ele>
        <time>2016-03-21T10:48:23Z</time>
      </trkpt>
      <trkpt lat="43.77914" lon="3.81162">
        <ele>629.26602567439</ele>
        <time>2016-03-21T10:49:29Z</time>
      </trkpt>
      <trkpt lat="43.77908" lon="3.81169">
        <ele>629.26602567439</ele>
        <time>2016-03-21T10:53:30Z</time>
      </trkpt>
      <trkpt lat="43.77907" lon="3.81173">
        <ele>637.60172562521</ele>
        <time>2016-03-21T10:53:30Z</time>
      </trkpt>
      <trkpt lat="43.77907" lon="3.81175">
        <ele>637.60172562521</ele>
        <time>2016-03-21T10:53:34Z</time>
      </trkpt>
      <trkpt lat="43.77906" lon="3.81193">
        <ele>645.76637783335</ele>
        <time>2016-03-21T11:07:19Z</time>
      </trkpt>
      <trkpt lat="43.77907" lon="3.81195">
        <ele>645.76637783335</ele>
        <time>2016-03-21T11:08:06Z</time>
      </trkpt>
      <trkpt lat="43.77907" lon="3.81192">
        <ele>645.76637783335</ele>
        <time>2016-03-21T11:08:06Z</time>
      </trkpt>
      <trkpt lat="43.77898" lon="3.8119">
        <ele>652.5569046812</ele>
        <time>2016-03-21T11:21:27Z</time>
      </trkpt>
      <trkpt lat="43.77905" lon="3.81199">
        <ele>658.63548417182</ele>
        <time>2016-03-21T11:23:14Z</time>
      </trkpt>
      <trkpt lat="43.77902" lon="3.81182">
        <ele>663.75704558339</ele>
        <time>2016-03-21T11:24:37Z</time>
      </trkpt>
      <trkpt lat="43.77902" lon="3.8118">
        <ele>663.75704558339</ele>
        <time>2016-03-21T11:24:37Z</time>
      </trkpt>
      <trkpt lat="43.77901" lon="3.81174">
        <ele>663.75704558339</ele>
        <time>2016-03-21T11:24:41Z</time>
      </trkpt>
      <trkpt lat="43.77888" lon="3.81148">
        <ele>667.74574805687</ele>
        <time>2016-03-21T11:25:21Z</time>
      </trkpt>
      <trkpt lat="43.77843" lon="3.81159">
        <ele>669.73983836744</ele>
        <time>2016-03-21T11:27:43Z</time>
      </trkpt>
      <trkpt lat="43.77843" lon="3.8116">
        <ele>669.73983836744</ele>
        <time>2016-03-21T11:27:44Z</time>
      </trkpt>
      <trkpt lat="43.77842" lon="3.81161">
        <ele>669.73983836744</ele>
        <time>2016-03-21T11:28:02Z</time>
      </trkpt>
      <trkpt lat="43.77845" lon="3.81191">
        <ele>670.40795755123</ele>
        <time>2016-03-21T11:28:31Z</time>
      </trkpt>
      <trkpt lat="43.77843" lon="3.81217">
        <ele>670.00873551766</ele>
        <time>2016-03-21T11:29:02Z</time>
      </trkpt>
      <trkpt lat="43.77842" lon="3.81217">
        <ele>670.00873551766</ele>
        <time>2016-03-21T11:29:04Z</time>
      </trkpt>
      <trkpt lat="43.77838" lon="3.81229">
        <ele>668.81175350066</ele>
        <time>2016-03-21T11:29:28Z</time>
      </trkpt>
      <trkpt lat="43.77817" lon="3.81233">
        <ele>665.96627108919</ele>
        <time>2016-03-21T11:30:33Z</time>
      </trkpt>
      <trkpt lat="43.77815" lon="3.81234">
        <ele>665.96627108919</ele>
        <time>2016-03-21T11:30:33Z</time>
      </trkpt>
      <trkpt lat="43.77789" lon="3.81224">
        <ele>660.97885434056</ele>
        <time>2016-03-21T11:32:04Z</time>
      </trkpt>
      <trkpt lat="43.77783" lon="3.81247">
        <ele>654.48184201496</ele>
        <time>2016-03-21T11:33:01Z</time>
      </trkpt>
      <trkpt lat="43.77782" lon="3.81278">
        <ele>648.06043143757</ele>
        <time>2016-03-21T11:33:02Z</time>
      </trkpt>
      <trkpt lat="43.7778" lon="3.81278">
        <ele>648.06043143757</ele>
        <time>2016-03-21T11:33:02Z</time>
      </trkpt>
      <trkpt lat="43.77779" lon="3.8126">
        <ele>640.81252679411</ele>
        <time>2016-03-21T11:33:32Z</time>
      </trkpt>
      <trkpt lat="43.77778" lon="3.81259">
        <ele>640.81252679411</ele>
        <time>2016-03-21T11:33:32Z</time>
      </trkpt>
      <trkpt lat="43.77772" lon="3.81264">
        <ele>640.81252679411</ele>
        <time>2016-03-21T11:33:48Z</time>
      </trkpt>
      <trkpt lat="43.77758" lon="3.81292">
        <ele>631.61877529725</ele>
        <time>2016-03-21T11:35:07Z</time>
      </trkpt>
      <trkpt lat="43.77742" lon="3.81353">
        <ele>621.68254153782</ele>
        <time>2016-03-21T11:35:57Z</time>
      </trkpt>
      <trkpt lat="43.77692" lon="3.81428">
        <ele>608.45504214211</ele>
        <time>2016-03-21T11:38:24Z</time>
      </trkpt>
      <trkpt lat="43.77693" lon="3.81444">
        <ele>595.75897592615</ele>
        <time>2016-03-21T11:38:41Z</time>
      </trkpt>
      <trkpt lat="43.77714" lon="3.81482">
        <ele>583.34829606968</ele>
        <time>2016-03-21T11:39:25Z</time>
      </trkpt>
      <trkpt lat="43.77711" lon="3.81487">
        <ele>583.34829606968</ele>
        <time>2016-03-21T11:39:34Z</time>
      </trkpt>
      <trkpt lat="43.77697" lon="3.81503">
        <ele>571.25740623079</ele>
        <time>2016-03-21T11:39:59Z</time>
      </trkpt>
      <trkpt lat="43.77702" lon="3.81529">
        <ele>559.8798651637</ele>
        <time>2016-03-21T11:40:37Z</time>
      </trkpt>
      <trkpt lat="43.77724" lon="3.81647">
        <ele>546.09524634808</ele>
        <time>2016-03-21T11:42:45Z</time>
      </trkpt>
      <trkpt lat="43.77723" lon="3.8165">
        <ele>546.09524634808</ele>
        <time>2016-03-21T11:42:49Z</time>
      </trkpt>
      <trkpt lat="43.77725" lon="3.81662">
        <ele>533.30536242462</ele>
        <time>2016-03-21T11:42:59Z</time>
      </trkpt>
      <trkpt lat="43.77725" lon="3.81666">
        <ele>533.30536242462</ele>
        <time>2016-03-21T11:43:04Z</time>
      </trkpt>
      <trkpt lat="43.77722" lon="3.81676">
        <ele>521.24337192458</ele>
        <time>2016-03-21T11:43:19Z</time>
      </trkpt>
      <trkpt lat="43.77721" lon="3.81685">
        <ele>521.24337192458</ele>
        <time>2016-03-21T11:43:34Z</time>
      </trkpt>
      <trkpt lat="43.77711" lon="3.81776">
        <ele>508.40264728798</ele>
        <time>2016-03-21T11:45:32Z</time>
      </trkpt>
      <trkpt lat="43.77704" lon="3.81815">
        <ele>496.5001030435</ele>
        <time>2016-03-21T11:45:34Z</time>
      </trkpt>
      <trkpt lat="43.77706" lon="3.81877">
        <ele>484.36031748516</ele>
        <time>2016-03-21T11:46:50Z</time>
      </trkpt>
      <trkpt lat="43.7771" lon="3.81895">
        <ele>473.26401972375</ele>
        <time>2016-03-21T11:46:50Z</time>
      </trkpt>
      <trkpt lat="43.7771" lon="3.81896">
        <ele>473.26401972375</ele>
        <time>2016-03-21T11:46:51Z</time>
      </trkpt>
      <trkpt lat="43.77708" lon="3.81903">
        <ele>473.26401972375</ele>
        <time>2016-03-21T11:47:03Z</time>
      </trkpt>
      <trkpt lat="43.77707" lon="3.81903">
        <ele>473.26401972375</ele>
        <time>2016-03-21T11:47:04Z</time>
      </trkpt>
      <trkpt lat="43.77708" lon="3.81951">
        <ele>461.54927953451</ele>
        <time>2016-03-21T11:47:59Z</time>
      </trkpt>
      <trkpt lat="43.77693" lon="3.81991">
        <ele>449.23720892654</ele>
        <time>2016-03-21T11:48:59Z</time>
      </trkpt>
      <trkpt lat="43.77679" lon="3.81995">
        <ele>437.58808138041</ele>
        <time>2016-03-21T11:49:19Z</time>
      </trkpt>
      <trkpt lat="43.77678" lon="3.81997">
        <ele>437.58808138041</ele>
        <time>2016-03-21T11:49:19Z</time>
      </trkpt>
      <trkpt lat="43.77678" lon="3.81999">
        <ele>437.58808138041</ele>
        <time>2016-03-21T11:49:21Z</time>
      </trkpt>
      <trkpt lat="43.77673" lon="3.82008">
        <ele>427.00141825688</ele>
        <time>2016-03-21T11:49:29Z</time>
      </trkpt>
      <trkpt lat="43.77673" lon="3.8201">
        <ele>427.00141825688</ele>
        <time>2016-03-21T11:49:29Z</time>
      </trkpt>
      <trkpt lat="43.77657" lon="3.82056">
        <ele>416.25721067552</ele>
        <time>2016-03-21T11:50:29Z</time>
      </trkpt>
      <trkpt lat="43.7765" lon="3.82094">
        <ele>405.99825313476</ele>
        <time>2016-03-21T11:50:38Z</time>
      </trkpt>
      <trkpt lat="43.77648" lon="3.82101">
        <ele>405.99825313476</ele>
        <time>2016-03-21T11:50:45Z</time>
      </trkpt>
      <trkpt lat="43.77641" lon="3.82115">
        <ele>396.45703155073</ele>
        <time>2016-03-21T11:51:03Z</time>
      </trkpt>
      <trkpt lat="43.77609" lon="3.82174">
        <ele>386.20219824901</ele>
        <time>2016-03-21T11:51:55Z</time>
      </trkpt>
      <trkpt lat="43.77605" lon="3.82174">
        <ele>386.20219824901</ele>
        <time>2016-03-21T11:52:04Z</time>
      </trkpt>
      <trkpt lat="43.77605" lon="3.82173">
        <ele>386.20219824901</ele>
        <time>2016-03-21T11:52:09Z</time>
      </trkpt>
      <trkpt lat="43.77601" lon="3.82177">
        <ele>375.89805308911</ele>
        <time>2016-03-21T11:52:15Z</time>
      </trkpt>
      <trkpt lat="43.776" lon="3.82181">
        <ele>375.89805308911</ele>
        <time>2016-03-21T11:52:19Z</time>
      </trkpt>
      <trkpt lat="43.77598" lon="3.82189">
        <ele>375.89805308911</ele>
        <time>2016-03-21T11:52:27Z</time>
      </trkpt>
      <trkpt lat="43.77598" lon="3.8219">
        <ele>366.70701198571</ele>
        <time>2016-03-21T11:52:36Z</time>
      </trkpt>
      <trkpt lat="43.77596" lon="3.82207">
        <ele>358.60612840403</ele>
        <time>2016-03-21T11:52:52Z</time>
      </trkpt>
      <trkpt lat="43.77584" lon="3.82278">
        <ele>350.27217893257</ele>
        <time>2016-03-21T11:53:41Z</time>
      </trkpt>
      <trkpt lat="43.77584" lon="3.82279">
        <ele>350.27217893257</ele>
        <time>2016-03-21T11:53:44Z</time>
      </trkpt>
      <trkpt lat="43.77572" lon="3.82289">
        <ele>342.61286689</ele>
        <time>2016-03-21T11:54:04Z</time>
      </trkpt>
      <trkpt lat="43.77569" lon="3.82299">
        <ele>342.61286689</ele>
        <time>2016-03-21T11:54:26Z</time>
      </trkpt>
      <trkpt lat="43.77566" lon="3.82307">
        <ele>335.42806208777</ele>
        <time>2016-03-21T11:54:49Z</time>
      </trkpt>
      <trkpt lat="43.77535" lon="3.82368">
        <ele>327.99637375832</ele>
        <time>2016-03-21T11:56:15Z</time>
      </trkpt>
      <trkpt lat="43.77537" lon="3.82373">
        <ele>327.99637375832</ele>
        <time>2016-03-21T11:56:20Z</time>
      </trkpt>
      <trkpt lat="43.77536" lon="3.82379">
        <ele>321.50972047995</ele>
        <time>2016-03-21T11:56:29Z</time>
      </trkpt>
      <trkpt lat="43.77532" lon="3.8238">
        <ele>321.50972047995</ele>
        <time>2016-03-21T11:56:34Z</time>
      </trkpt>
      <trkpt lat="43.77529" lon="3.8239">
        <ele>315.48243558392</ele>
        <time>2016-03-21T11:56:54Z</time>
      </trkpt>
      <trkpt lat="43.77533" lon="3.82392">
        <ele>315.48243558392</ele>
        <time>2016-03-21T11:57:09Z</time>
      </trkpt>
      <trkpt lat="43.77541" lon="3.82404">
        <ele>309.80859371703</ele>
        <time>2016-03-21T11:57:21Z</time>
      </trkpt>
      <trkpt lat="43.7754" lon="3.82407">
        <ele>309.80859371703</ele>
        <time>2016-03-21T11:57:24Z</time>
      </trkpt>
      <trkpt lat="43.77538" lon="3.8241">
        <ele>309.80859371703</ele>
        <time>2016-03-21T11:57:34Z</time>
      </trkpt>
      <trkpt lat="43.77537" lon="3.82417">
        <ele>305.03742451212</ele>
        <time>2016-03-21T11:57:42Z</time>
      </trkpt>
      <trkpt lat="43.77535" lon="3.82425">
        <ele>305.03742451212</ele>
        <time>2016-03-21T11:57:44Z</time>
      </trkpt>
      <trkpt lat="43.77536" lon="3.82434">
        <ele>301.11204011177</ele>
        <time>2016-03-21T11:58:10Z</time>
      </trkpt>
      <trkpt lat="43.77569" lon="3.82464">
        <ele>296.7506807089</ele>
        <time>2016-03-21T12:00:04Z</time>
      </trkpt>
      <trkpt lat="43.77596" lon="3.82462">
        <ele>293.34849959142</ele>
        <time>2016-03-21T12:00:32Z</time>
      </trkpt>
      <trkpt lat="43.77597" lon="3.82462">
        <ele>293.34849959142</ele>
        <time>2016-03-21T12:00:34Z</time>
      </trkpt>
      <trkpt lat="43.77603" lon="3.82462">
        <ele>293.34849959142</ele>
        <time>2016-03-21T12:00:42Z</time>
      </trkpt>
      <trkpt lat="43.77605" lon="3.82462">
        <ele>290.92555676617</ele>
        <time>2016-03-21T12:00:44Z</time>
      </trkpt>
      <trkpt lat="43.77609" lon="3.82462">
        <ele>290.92555676617</ele>
        <time>2016-03-21T12:00:49Z</time>
      </trkpt>
      <trkpt lat="43.77614" lon="3.82461">
        <ele>289.28093808321</ele>
        <time>2016-03-21T12:00:58Z</time>
      </trkpt>
      <trkpt lat="43.77618" lon="3.8246">
        <ele>289.28093808321</ele>
        <time>2016-03-21T12:01:05Z</time>
      </trkpt>
      <trkpt lat="43.77623" lon="3.82454">
        <ele>288.26928827941</ele>
        <time>2016-03-21T12:01:27Z</time>
      </trkpt>
      <trkpt lat="43.77628" lon="3.82446">
        <ele>288.26928827941</ele>
        <time>2016-03-21T12:02:10Z</time>
      </trkpt>
      <trkpt lat="43.77629" lon="3.82435">
        <ele>287.63856416412</ele>
        <time>2016-03-21T12:02:21Z</time>
      </trkpt>
      <trkpt lat="43.77629" lon="3.8243">
        <ele>287.63856416412</ele>
        <time>2016-03-21T12:02:56Z</time>
      </trkpt>
      <trkpt lat="43.77632" lon="3.82429">
        <ele>287.63856416412</ele>
        <time>2016-03-21T12:03:07Z</time>
      </trkpt>
      <trkpt lat="43.77636" lon="3.82431">
        <ele>287.35596405053</ele>
        <time>2016-03-21T12:03:14Z</time>
      </trkpt>
      <trkpt lat="43.77639" lon="3.82432">
        <ele>287.35596405053</ele>
        <time>2016-03-21T12:03:47Z</time>
      </trkpt>
      <trkpt lat="43.7764" lon="3.82415">
        <ele>287.64961913329</ele>
        <time>2016-03-21T12:04:14Z</time>
      </trkpt>
      <trkpt lat="43.77656" lon="3.82392">
        <ele>288.22450833834</ele>
        <time>2016-03-21T12:04:24Z</time>
      </trkpt>
      <trkpt lat="43.77668" lon="3.82383">
        <ele>289.06616048129</ele>
        <time>2016-03-21T12:04:47Z</time>
      </trkpt>
      <trkpt lat="43.77677" lon="3.82378">
        <ele>290.13169878103</ele>
        <time>2016-03-21T12:04:49Z</time>
      </trkpt>
      <trkpt lat="43.77683" lon="3.82369">
        <ele>290.13169878103</ele>
        <time>2016-03-21T12:05:00Z</time>
      </trkpt>
      <trkpt lat="43.77705" lon="3.82351">
        <ele>290.55912027476</ele>
        <time>2016-03-21T12:05:49Z</time>
      </trkpt>
      <trkpt lat="43.77706" lon="3.82347">
        <ele>290.55912027476</ele>
        <time>2016-03-21T12:05:54Z</time>
      </trkpt>
      <trkpt lat="43.77708" lon="3.8234">
        <ele>290.55912027476</ele>
        <time>2016-03-21T12:05:59Z</time>
      </trkpt>
      <trkpt lat="43.77711" lon="3.82334">
        <ele>291.22435179066</ele>
        <time>2016-03-21T12:06:04Z</time>
      </trkpt>
      <trkpt lat="43.77715" lon="3.8233">
        <ele>291.22435179066</ele>
        <time>2016-03-21T12:06:09Z</time>
      </trkpt>
      <trkpt lat="43.7772" lon="3.82322">
        <ele>292.07340572815</ele>
        <time>2016-03-21T12:06:14Z</time>
      </trkpt>
      <trkpt lat="43.77745" lon="3.8229">
        <ele>292.71009185112</ele>
        <time>2016-03-21T12:06:49Z</time>
      </trkpt>
      <trkpt lat="43.77749" lon="3.82287">
        <ele>292.71009185112</ele>
        <time>2016-03-21T12:06:54Z</time>
      </trkpt>
      <trkpt lat="43.77755" lon="3.82281">
        <ele>293.51794747213</ele>
        <time>2016-03-21T12:07:04Z</time>
      </trkpt>
      <trkpt lat="43.77756" lon="3.8228">
        <ele>293.51794747213</ele>
        <time>2016-03-21T12:07:09Z</time>
      </trkpt>
      <trkpt lat="43.77756" lon="3.8228">
        <ele>293.51794747213</ele>
        <time>2016-03-21T12:07:19Z</time>
      </trkpt>
      <trkpt lat="43.77767" lon="3.82279">
        <ele>294.36208367497</ele>
        <time>2016-03-21T12:07:42Z</time>
      </trkpt>
      <trkpt lat="43.77768" lon="3.82279">
        <ele>294.36208367497</ele>
        <time>2016-03-21T12:07:44Z</time>
      </trkpt>
      <trkpt lat="43.77783" lon="3.82279">
        <ele>295.42056834972</ele>
        <time>2016-03-21T12:07:57Z</time>
      </trkpt>
      <trkpt lat="43.7779" lon="3.82278">
        <ele>295.42056834972</ele>
        <time>2016-03-21T12:08:06Z</time>
      </trkpt>
      <trkpt lat="43.77809" lon="3.82272">
        <ele>296.55553444285</ele>
        <time>2016-03-21T12:08:27Z</time>
      </trkpt>
      <trkpt lat="43.7782" lon="3.82264">
        <ele>297.8124941619</ele>
        <time>2016-03-21T12:08:34Z</time>
      </trkpt>
      <trkpt lat="43.77831" lon="3.82256">
        <ele>299.0320017334</ele>
        <time>2016-03-21T12:09:09Z</time>
      </trkpt>
      <trkpt lat="43.77835" lon="3.82255">
        <ele>299.0320017334</ele>
        <time>2016-03-21T12:09:14Z</time>
      </trkpt>
      <trkpt lat="43.77847" lon="3.82249">
        <ele>300.19669346829</ele>
        <time>2016-03-21T12:09:24Z</time>
      </trkpt>
      <trkpt lat="43.77847" lon="3.82248">
        <ele>300.19669346829</ele>
        <time>2016-03-21T12:09:29Z</time>
      </trkpt>
      <trkpt lat="43.77849" lon="3.82246">
        <ele>300.19669346829</ele>
        <time>2016-03-21T12:09:34Z</time>
      </trkpt>
      <trkpt lat="43.77858" lon="3.82244">
        <ele>301.29119002453</ele>
        <time>2016-03-21T12:09:44Z</time>
      </trkpt>
      <trkpt lat="43.7786" lon="3.82242">
        <ele>301.29119002453</ele>
        <time>2016-03-21T12:09:49Z</time>
      </trkpt>
      <trkpt lat="43.77863" lon="3.82234">
        <ele>301.29119002453</ele>
        <time>2016-03-21T12:09:54Z</time>
      </trkpt>
      <trkpt lat="43.77867" lon="3.82231">
        <ele>302.30200955</ele>
        <time>2016-03-21T12:09:59Z</time>
      </trkpt>
      <trkpt lat="43.77886" lon="3.82227">
        <ele>303.03012427199</ele>
        <time>2016-03-21T12:10:27Z</time>
      </trkpt>
      <trkpt lat="43.77895" lon="3.8222">
        <ele>303.56634158647</ele>
        <time>2016-03-21T12:10:29Z</time>
      </trkpt>
      <trkpt lat="43.77904" lon="3.8221">
        <ele>303.86622356103</ele>
        <time>2016-03-21T12:10:45Z</time>
      </trkpt>
      <trkpt lat="43.77999" lon="3.82149">
        <ele>302.0884245139</ele>
        <time>2016-03-21T12:12:25Z</time>
      </trkpt>
      <trkpt lat="43.78018" lon="3.82138">
        <ele>300.09291888902</ele>
        <time>2016-03-21T12:12:46Z</time>
      </trkpt>
      <trkpt lat="43.7802" lon="3.82132">
        <ele>300.09291888902</ele>
        <time>2016-03-21T12:12:46Z</time>
      </trkpt>
      <trkpt lat="43.78023" lon="3.82111">
        <ele>298.27835130756</ele>
        <time>2016-03-21T12:13:06Z</time>
      </trkpt>
      <trkpt lat="43.78034" lon="3.82074">
        <ele>296.45208415938</ele>
        <time>2016-03-21T12:13:36Z</time>
      </trkpt>
      <trkpt lat="43.78038" lon="3.82049">
        <ele>294.69559926498</ele>
        <time>2016-03-21T12:14:01Z</time>
      </trkpt>
      <trkpt lat="43.78084" lon="3.81979">
        <ele>292.83971381086</ele>
        <time>2016-03-21T12:15:06Z</time>
      </trkpt>
      <trkpt lat="43.78098" lon="3.81974">
        <ele>291.0166629087</ele>
        <time>2016-03-21T12:15:17Z</time>
      </trkpt>
      <trkpt lat="43.781" lon="3.81975">
        <ele>291.0166629087</ele>
        <time>2016-03-21T12:15:19Z</time>
      </trkpt>
      <trkpt lat="43.78122" lon="3.81963">
        <ele>289.27728307545</ele>
        <time>2016-03-21T12:15:39Z</time>
      </trkpt>
      <trkpt lat="43.78134" lon="3.8196">
        <ele>287.69770671767</ele>
        <time>2016-03-21T12:16:04Z</time>
      </trkpt>
      <trkpt lat="43.78145" lon="3.81968">
        <ele>285.68552554942</ele>
        <time>2016-03-21T12:16:28Z</time>
      </trkpt>
      <trkpt lat="43.78161" lon="3.8197">
        <ele>283.68784208803</ele>
        <time>2016-03-21T12:16:45Z</time>
      </trkpt>
      <trkpt lat="43.78164" lon="3.81968">
        <ele>283.68784208803</ele>
        <time>2016-03-21T12:16:49Z</time>
      </trkpt>
      <trkpt lat="43.78216" lon="3.8193">
        <ele>280.41871029299</ele>
        <time>2016-03-21T12:18:00Z</time>
      </trkpt>
      <trkpt lat="43.78222" lon="3.81923">
        <ele>280.41871029299</ele>
        <time>2016-03-21T12:18:00Z</time>
      </trkpt>
      <trkpt lat="43.78227" lon="3.81912">
        <ele>277.03961827056</ele>
        <time>2016-03-21T12:18:13Z</time>
      </trkpt>
      <trkpt lat="43.78249" lon="3.81861">
        <ele>272.26389296226</ele>
        <time>2016-03-21T12:19:04Z</time>
      </trkpt>
      <trkpt lat="43.78251" lon="3.81858">
        <ele>272.26389296226</ele>
        <time>2016-03-21T12:19:04Z</time>
      </trkpt>
      <trkpt lat="43.78261" lon="3.81848">
        <ele>267.42558240769</ele>
        <time>2016-03-21T12:19:19Z</time>
      </trkpt>
      <trkpt lat="43.78271" lon="3.81833">
        <ele>262.73795260887</ele>
        <time>2016-03-21T12:19:34Z</time>
      </trkpt>
      <trkpt lat="43.78288" lon="3.8181">
        <ele>258.28310169651</ele>
        <time>2016-03-21T12:19:58Z</time>
      </trkpt>
      <trkpt lat="43.78302" lon="3.81792">
        <ele>253.83397904489</ele>
        <time>2016-03-21T12:20:18Z</time>
      </trkpt>
      <trkpt lat="43.78311" lon="3.81777">
        <ele>249.52621577801</ele>
        <time>2016-03-21T12:20:29Z</time>
      </trkpt>
      <trkpt lat="43.78312" lon="3.81775">
        <ele>249.52621577801</ele>
        <time>2016-03-21T12:20:31Z</time>
      </trkpt>
      <trkpt lat="43.7832" lon="3.81757">
        <ele>245.35549293124</ele>
        <time>2016-03-21T12:20:44Z</time>
      </trkpt>
      <trkpt lat="43.78322" lon="3.81751">
        <ele>245.35549293124</ele>
        <time>2016-03-21T12:20:51Z</time>
      </trkpt>
      <trkpt lat="43.78329" lon="3.81734">
        <ele>241.17339574195</ele>
        <time>2016-03-21T12:21:04Z</time>
      </trkpt>
      <trkpt lat="43.78339" lon="3.81713">
        <ele>237.15955851486</ele>
        <time>2016-03-21T12:21:18Z</time>
      </trkpt>
      <trkpt lat="43.78349" lon="3.81703">
        <ele>233.24940350721</ele>
        <time>2016-03-21T12:21:40Z</time>
      </trkpt>
      <trkpt lat="43.78364" lon="3.81681">
        <ele>229.25312318614</ele>
        <time>2016-03-21T12:21:51Z</time>
      </trkpt>
      <trkpt lat="43.78366" lon="3.81677">
        <ele>229.25312318614</ele>
        <time>2016-03-21T12:21:55Z</time>
      </trkpt>
      <trkpt lat="43.78365" lon="3.81677">
        <ele>229.25312318614</ele>
        <time>2016-03-21T12:22:07Z</time>
      </trkpt>
      <trkpt lat="43.78367" lon="3.81667">
        <ele>225.22568079541</ele>
        <time>2016-03-21T12:22:39Z</time>
      </trkpt>
      <trkpt lat="43.78366" lon="3.81663">
        <ele>225.22568079541</ele>
        <time>2016-03-21T12:22:44Z</time>
      </trkpt>
      <trkpt lat="43.78365" lon="3.81657">
        <ele>225.22568079541</ele>
        <time>2016-03-21T12:22:49Z</time>
      </trkpt>
      <trkpt lat="43.78364" lon="3.81654">
        <ele>221.73688686677</ele>
        <time>2016-03-21T12:22:54Z</time>
      </trkpt>
      <trkpt lat="43.78366" lon="3.8165">
        <ele>221.73688686677</ele>
        <time>2016-03-21T12:24:01Z</time>
      </trkpt>
      <trkpt lat="43.78359" lon="3.81641">
        <ele>218.9096343813</ele>
        <time>2016-03-21T12:25:09Z</time>
      </trkpt>
      <trkpt lat="43.78356" lon="3.81638">
        <ele>218.9096343813</ele>
        <time>2016-03-21T12:25:14Z</time>
      </trkpt>
      <trkpt lat="43.78355" lon="3.81632">
        <ele>218.9096343813</ele>
        <time>2016-03-21T12:25:24Z</time>
      </trkpt>
      <trkpt lat="43.78353" lon="3.81625">
        <ele>216.48120113442</ele>
        <time>2016-03-21T12:25:29Z</time>
      </trkpt>
      <trkpt lat="43.78351" lon="3.81621">
        <ele>216.48120113442</ele>
        <time>2016-03-21T12:25:39Z</time>
      </trkpt>
      <trkpt lat="43.78342" lon="3.81588">
        <ele>214.61052603996</ele>
        <time>2016-03-21T12:26:17Z</time>
      </trkpt>
      <trkpt lat="43.78339" lon="3.81572">
        <ele>213.18386411041</ele>
        <time>2016-03-21T12:26:34Z</time>
      </trkpt>
      <trkpt lat="43.78332" lon="3.81566">
        <ele>213.18386411041</ele>
        <time>2016-03-21T12:26:34Z</time>
      </trkpt>
      <trkpt lat="43.78311" lon="3.81517">
        <ele>212.68541242174</ele>
        <time>2016-03-21T12:27:34Z</time>
      </trkpt>
      <trkpt lat="43.78305" lon="3.81505">
        <ele>212.49473318887</ele>
        <time>2016-03-21T12:28:00Z</time>
      </trkpt>
      <trkpt lat="43.78297" lon="3.81484">
        <ele>212.69901533862</ele>
        <time>2016-03-21T12:28:17Z</time>
      </trkpt>
      <trkpt lat="43.78298" lon="3.81466">
        <ele>213.19059549634</ele>
        <time>2016-03-21T12:28:44Z</time>
      </trkpt>
      <trkpt lat="43.78295" lon="3.81446">
        <ele>214.11393161926</ele>
        <time>2016-03-21T12:28:44Z</time>
      </trkpt>
      <trkpt lat="43.78296" lon="3.81411">
        <ele>215.54406076143</ele>
        <time>2016-03-21T12:29:15Z</time>
      </trkpt>
      <trkpt lat="43.783" lon="3.81399">
        <ele>217.13123054936</ele>
        <time>2016-03-21T12:29:24Z</time>
      </trkpt>
      <trkpt lat="43.78305" lon="3.81321">
        <ele>220.23714753326</ele>
        <time>2016-03-21T12:30:34Z</time>
      </trkpt>
      <trkpt lat="43.78308" lon="3.81317">
        <ele>220.23714753326</ele>
        <time>2016-03-21T12:30:39Z</time>
      </trkpt>
      <trkpt lat="43.78313" lon="3.81312">
        <ele>223.56856591332</ele>
        <time>2016-03-21T12:30:44Z</time>
      </trkpt>
      <trkpt lat="43.78318" lon="3.81311">
        <ele>223.56856591332</ele>
        <time>2016-03-21T12:31:08Z</time>
      </trkpt>
      <trkpt lat="43.7833" lon="3.81305">
        <ele>227.15171536796</ele>
        <time>2016-03-21T12:31:08Z</time>
      </trkpt>
      <trkpt lat="43.7833" lon="3.81304">
        <ele>227.15171536796</ele>
        <time>2016-03-21T12:31:09Z</time>
      </trkpt>
      <trkpt lat="43.78352" lon="3.81238">
        <ele>232.45149579821</ele>
        <time>2016-03-21T12:32:21Z</time>
      </trkpt>
      <trkpt lat="43.78354" lon="3.81225">
        <ele>237.8086694917</ele>
        <time>2016-03-21T12:32:21Z</time>
      </trkpt>
      <trkpt lat="43.78351" lon="3.81177">
        <ele>243.30003778063</ele>
        <time>2016-03-21T12:32:50Z</time>
      </trkpt>
      <trkpt lat="43.7835" lon="3.81132">
        <ele>248.62199276499</ele>
        <time>2016-03-21T12:33:21Z</time>
      </trkpt>
      <trkpt lat="43.7835" lon="3.81128">
        <ele>248.62199276499</ele>
        <time>2016-03-21T12:33:24Z</time>
      </trkpt>
      <trkpt lat="43.78341" lon="3.81087">
        <ele>253.56609540675</ele>
        <time>2016-03-21T12:33:54Z</time>
      </trkpt>
      <trkpt lat="43.78328" lon="3.81039">
        <ele>258.07034426062</ele>
        <time>2016-03-21T12:34:20Z</time>
      </trkpt>
      <trkpt lat="43.78312" lon="3.81">
        <ele>262.48242904375</ele>
        <time>2016-03-21T12:34:54Z</time>
      </trkpt>
      <trkpt lat="43.7831" lon="3.80999">
        <ele>262.48242904375</ele>
        <time>2016-03-21T12:34:59Z</time>
      </trkpt>
      <trkpt lat="43.78304" lon="3.80997">
        <ele>262.48242904375</ele>
        <time>2016-03-21T12:35:04Z</time>
      </trkpt>
      <trkpt lat="43.78301" lon="3.80996">
        <ele>266.56313383113</ele>
        <time>2016-03-21T12:35:09Z</time>
      </trkpt>
      <trkpt lat="43.78295" lon="3.80979">
        <ele>270.76949435585</ele>
        <time>2016-03-21T12:35:41Z</time>
      </trkpt>
      <trkpt lat="43.78279" lon="3.80953">
        <ele>275.02066901332</ele>
        <time>2016-03-21T12:36:17Z</time>
      </trkpt>
      <trkpt lat="43.78276" lon="3.80943">
        <ele>275.02066901332</ele>
        <time>2016-03-21T12:36:17Z</time>
      </trkpt>
      <trkpt lat="43.78268" lon="3.8092">
        <ele>279.29972086812</ele>
        <time>2016-03-21T12:36:53Z</time>
      </trkpt>
      <trkpt lat="43.78262" lon="3.80902">
        <ele>283.44722177642</ele>
        <time>2016-03-21T12:36:53Z</time>
      </trkpt>
      <trkpt lat="43.78248" lon="3.80878">
        <ele>287.1721711958</ele>
        <time>2016-03-21T12:37:19Z</time>
      </trkpt>
      <trkpt lat="43.78237" lon="3.80857">
        <ele>291.41712579323</ele>
        <time>2016-03-21T12:37:50Z</time>
      </trkpt>
      <trkpt lat="43.78233" lon="3.80851">
        <ele>291.41712579323</ele>
        <time>2016-03-21T12:37:50Z</time>
      </trkpt>
      <trkpt lat="43.78231" lon="3.8084">
        <ele>295.68534909371</ele>
        <time>2016-03-21T12:38:07Z</time>
      </trkpt>
      <trkpt lat="43.78228" lon="3.80835">
        <ele>295.68534909371</ele>
        <time>2016-03-21T12:38:07Z</time>
      </trkpt>
      <trkpt lat="43.7819" lon="3.80747">
        <ele>300.49694762764</ele>
        <time>2016-03-21T12:40:03Z</time>
      </trkpt>
      <trkpt lat="43.78165" lon="3.80638">
        <ele>305.20869143561</ele>
        <time>2016-03-21T12:41:18Z</time>
      </trkpt>
      <trkpt lat="43.78165" lon="3.80637">
        <ele>305.20869143561</ele>
        <time>2016-03-21T12:41:19Z</time>
      </trkpt>
      <trkpt lat="43.78145" lon="3.80412">
        <ele>309.54238829279</ele>
        <time>2016-03-21T12:43:44Z</time>
      </trkpt>
      <trkpt lat="43.7813" lon="3.80338">
        <ele>313.35709077281</ele>
        <time>2016-03-21T12:44:35Z</time>
      </trkpt>
      <trkpt lat="43.78133" lon="3.80304">
        <ele>315.89002468486</ele>
        <time>2016-03-21T12:45:19Z</time>
      </trkpt>
      <trkpt lat="43.7814" lon="3.80286">
        <ele>317.8219531348</ele>
        <time>2016-03-21T12:45:34Z</time>
      </trkpt>
      <trkpt lat="43.78141" lon="3.80265">
        <ele>319.22370512863</ele>
        <time>2016-03-21T12:46:00Z</time>
      </trkpt>
      <trkpt lat="43.78141" lon="3.80255">
        <ele>319.22370512863</ele>
        <time>2016-03-21T12:46:00Z</time>
      </trkpt>
      <trkpt lat="43.78112" lon="3.80142">
        <ele>318.86578813686</ele>
        <time>2016-03-21T12:47:24Z</time>
      </trkpt>
      <trkpt lat="43.78111" lon="3.80128">
        <ele>318.208329316</ele>
        <time>2016-03-21T12:47:41Z</time>
      </trkpt>
      <trkpt lat="43.7811" lon="3.80102">
        <ele>317.10660376141</ele>
        <time>2016-03-21T12:47:58Z</time>
      </trkpt>
      <trkpt lat="43.7811" lon="3.80088">
        <ele>315.81714765769</ele>
        <time>2016-03-21T12:47:58Z</time>
      </trkpt>
      <trkpt lat="43.78092" lon="3.80007">
        <ele>313.49758185358</ele>
        <time>2016-03-21T12:48:57Z</time>
      </trkpt>
      <trkpt lat="43.78091" lon="3.80007">
        <ele>313.49758185358</ele>
        <time>2016-03-21T12:48:59Z</time>
      </trkpt>
      <trkpt lat="43.7809" lon="3.80007">
        <ele>313.49758185358</ele>
        <time>2016-03-21T12:49:04Z</time>
      </trkpt>
      <trkpt lat="43.78089" lon="3.79994">
        <ele>310.85483488306</ele>
        <time>2016-03-21T12:49:19Z</time>
      </trkpt>
      <trkpt lat="43.78093" lon="3.79979">
        <ele>308.02615470276</ele>
        <time>2016-03-21T12:49:37Z</time>
      </trkpt>
      <trkpt lat="43.78096" lon="3.79972">
        <ele>308.02615470276</ele>
        <time>2016-03-21T12:49:41Z</time>
      </trkpt>
      <trkpt lat="43.78118" lon="3.79925">
        <ele>304.17377815029</ele>
        <time>2016-03-21T12:50:27Z</time>
      </trkpt>
      <trkpt lat="43.78099" lon="3.79817">
        <ele>299.33142229975</ele>
        <time>2016-03-21T12:51:34Z</time>
      </trkpt>
      <trkpt lat="43.78099" lon="3.79795">
        <ele>294.34011945565</ele>
        <time>2016-03-21T12:51:51Z</time>
      </trkpt>
      <trkpt lat="43.78093" lon="3.79765">
        <ele>289.46067707326</ele>
        <time>2016-03-21T12:53:10Z</time>
      </trkpt>
      <trkpt lat="43.78102" lon="3.79659">
        <ele>284.86226294059</ele>
        <time>2016-03-21T12:53:14Z</time>
      </trkpt>
      <trkpt lat="43.78108" lon="3.79647">
        <ele>278.07784187698</ele>
        <time>2016-03-21T12:53:19Z</time>
      </trkpt>
      <trkpt lat="43.78051" lon="3.79424">
        <ele>271.16527351151</ele>
        <time>2016-03-21T12:55:49Z</time>
      </trkpt>
      <trkpt lat="43.78051" lon="3.79424">
        <ele>271.16527351151</ele>
        <time>2016-03-21T12:55:54Z</time>
      </trkpt>
      <trkpt lat="43.7802" lon="3.79442">
        <ele>265.02256797429</ele>
        <time>2016-03-21T12:56:25Z</time>
      </trkpt>
      <trkpt lat="43.77978" lon="3.79487">
        <ele>260.29195845588</ele>
        <time>2016-03-21T12:57:19Z</time>
      </trkpt>
      <trkpt lat="43.7797" lon="3.795">
        <ele>256.20954939655</ele>
        <time>2016-03-21T12:57:42Z</time>
      </trkpt>
      <trkpt lat="43.77964" lon="3.79507">
        <ele>256.20954939655</ele>
        <time>2016-03-21T12:57:42Z</time>
      </trkpt>
      <trkpt lat="43.77957" lon="3.79511">
        <ele>252.88680416776</ele>
        <time>2016-03-21T12:57:59Z</time>
      </trkpt>
      <trkpt lat="43.77954" lon="3.79517">
        <ele>252.88680416776</ele>
        <time>2016-03-21T12:57:59Z</time>
      </trkpt>
      <trkpt lat="43.77937" lon="3.79535">
        <ele>250.79916761132</ele>
        <time>2016-03-21T12:58:44Z</time>
      </trkpt>
      <trkpt lat="43.77932" lon="3.79537">
        <ele>250.79916761132</ele>
        <time>2016-03-21T12:58:44Z</time>
      </trkpt>
      <trkpt lat="43.77926" lon="3.79531">
        <ele>249.38893147986</ele>
        <time>2016-03-21T12:59:07Z</time>
      </trkpt>
      <trkpt lat="43.77924" lon="3.7953">
        <ele>249.38893147986</ele>
        <time>2016-03-21T12:59:24Z</time>
      </trkpt>
      <trkpt lat="43.77889" lon="3.79536">
        <ele>249.57817696274</ele>
        <time>2016-03-21T13:00:16Z</time>
      </trkpt>
      <trkpt lat="43.77881" lon="3.79541">
        <ele>249.57817696274</ele>
        <time>2016-03-21T13:00:16Z</time>
      </trkpt>
      <trkpt lat="43.77869" lon="3.79552">
        <ele>250.93379558615</ele>
        <time>2016-03-21T13:01:07Z</time>
      </trkpt>
      <trkpt lat="43.77857" lon="3.7954">
        <ele>252.58971187066</ele>
        <time>2016-03-21T13:01:16Z</time>
      </trkpt>
      <trkpt lat="43.77856" lon="3.79537">
        <ele>252.58971187066</ele>
        <time>2016-03-21T13:01:21Z</time>
      </trkpt>
      <trkpt lat="43.7787" lon="3.79491">
        <ele>255.44281686423</ele>
        <time>2016-03-21T13:02:17Z</time>
      </trkpt>
      <trkpt lat="43.77879" lon="3.79356">
        <ele>261.15631932544</ele>
        <time>2016-03-21T13:03:51Z</time>
      </trkpt>
      <trkpt lat="43.77879" lon="3.79347">
        <ele>261.15631932544</ele>
        <time>2016-03-21T13:03:51Z</time>
      </trkpt>
      <trkpt lat="43.77873" lon="3.79225">
        <ele>269.57689292874</ele>
        <time>2016-03-21T13:05:15Z</time>
      </trkpt>
      <trkpt lat="43.77776" lon="3.78953">
        <ele>282.42816285783</ele>
        <time>2016-03-21T13:08:49Z</time>
      </trkpt>
      <trkpt lat="43.77777" lon="3.78945">
        <ele>282.42816285783</ele>
        <time>2016-03-21T13:08:54Z</time>
      </trkpt>
      <trkpt lat="43.77774" lon="3.78917">
        <ele>294.36287909866</ele>
        <time>2016-03-21T13:09:12Z</time>
      </trkpt>
      <trkpt lat="43.77774" lon="3.78914">
        <ele>294.36287909866</ele>
        <time>2016-03-21T13:09:14Z</time>
      </trkpt>
      <trkpt lat="43.77759" lon="3.789">
        <ele>305.17043517093</ele>
        <time>2016-03-21T13:09:36Z</time>
      </trkpt>
      <trkpt lat="43.77755" lon="3.78891">
        <ele>305.17043517093</ele>
        <time>2016-03-21T13:09:37Z</time>
      </trkpt>
      <trkpt lat="43.77707" lon="3.78805">
        <ele>314.41396721014</ele>
        <time>2016-03-21T13:11:21Z</time>
      </trkpt>
      <trkpt lat="43.77698" lon="3.78763">
        <ele>323.33613853328</ele>
        <time>2016-03-21T13:12:00Z</time>
      </trkpt>
      <trkpt lat="43.77676" lon="3.78751">
        <ele>331.51866414714</ele>
        <time>2016-03-21T13:12:44Z</time>
      </trkpt>
      <trkpt lat="43.77674" lon="3.78739">
        <ele>331.51866414714</ele>
        <time>2016-03-21T13:13:08Z</time>
      </trkpt>
      <trkpt lat="43.77679" lon="3.78726">
        <ele>339.16721769961</ele>
        <time>2016-03-21T13:13:08Z</time>
      </trkpt>
      <trkpt lat="43.77675" lon="3.78704">
        <ele>346.27245015708</ele>
        <time>2016-03-21T13:13:35Z</time>
      </trkpt>
      <trkpt lat="43.77658" lon="3.78692">
        <ele>352.78436741663</ele>
        <time>2016-03-21T13:13:46Z</time>
      </trkpt>
      <trkpt lat="43.77656" lon="3.78689">
        <ele>352.78436741663</ele>
        <time>2016-03-21T13:13:52Z</time>
      </trkpt>
      <trkpt lat="43.77655" lon="3.78683">
        <ele>352.78436741663</ele>
        <time>2016-03-21T13:14:08Z</time>
      </trkpt>
      <trkpt lat="43.77653" lon="3.78676">
        <ele>358.93252621933</ele>
        <time>2016-03-21T13:14:08Z</time>
      </trkpt>
      <trkpt lat="43.77648" lon="3.78673">
        <ele>358.93252621933</ele>
        <time>2016-03-21T13:14:25Z</time>
      </trkpt>
      <trkpt lat="43.77642" lon="3.78679">
        <ele>364.52754975127</ele>
        <time>2016-03-21T13:14:25Z</time>
      </trkpt>
      <trkpt lat="43.77622" lon="3.78714">
        <ele>369.79946716243</ele>
        <time>2016-03-21T13:15:04Z</time>
      </trkpt>
      <trkpt lat="43.77615" lon="3.78719">
        <ele>369.79946716243</ele>
        <time>2016-03-21T13:15:16Z</time>
      </trkpt>
      <trkpt lat="43.77602" lon="3.78721">
        <ele>374.58806365976</ele>
        <time>2016-03-21T13:15:34Z</time>
      </trkpt>
      <trkpt lat="43.776" lon="3.78722">
        <ele>374.58806365976</ele>
        <time>2016-03-21T13:15:34Z</time>
      </trkpt>
      <trkpt lat="43.77598" lon="3.78723">
        <ele>374.58806365976</ele>
        <time>2016-03-21T13:15:39Z</time>
      </trkpt>
      <trkpt lat="43.77589" lon="3.78728">
        <ele>379.20784192658</ele>
        <time>2016-03-21T13:17:00Z</time>
      </trkpt>
      <trkpt lat="43.77556" lon="3.78686">
        <ele>383.17290636317</ele>
        <time>2016-03-21T13:19:02Z</time>
      </trkpt>
      <trkpt lat="43.77495" lon="3.78634">
        <ele>386.16501308648</ele>
        <time>2016-03-21T13:20:16Z</time>
      </trkpt>
      <trkpt lat="43.77475" lon="3.78623">
        <ele>388.52652073002</ele>
        <time>2016-03-21T13:20:31Z</time>
      </trkpt>
      <trkpt lat="43.77456" lon="3.78614">
        <ele>390.31739242814</ele>
        <time>2016-03-21T13:20:48Z</time>
      </trkpt>
      <trkpt lat="43.7739" lon="3.78617">
        <ele>391.11957838645</ele>
        <time>2016-03-21T13:21:39Z</time>
      </trkpt>
      <trkpt lat="43.77385" lon="3.78621">
        <ele>391.11957838645</ele>
        <time>2016-03-21T13:21:44Z</time>
      </trkpt>
      <trkpt lat="43.77377" lon="3.7863">
        <ele>391.48556071088</ele>
        <time>2016-03-21T13:21:52Z</time>
      </trkpt>
      <trkpt lat="43.77375" lon="3.7863">
        <ele>391.48556071088</ele>
        <time>2016-03-21T13:22:00Z</time>
      </trkpt>
      <trkpt lat="43.77332" lon="3.7871">
        <ele>390.18500310246</ele>
        <time>2016-03-21T13:23:17Z</time>
      </trkpt>
      <trkpt lat="43.77275" lon="3.78822">
        <ele>387.09164547003</ele>
        <time>2016-03-21T13:25:44Z</time>
      </trkpt>
      <trkpt lat="43.772" lon="3.78928">
        <ele>382.95839004998</ele>
        <time>2016-03-21T13:27:27Z</time>
      </trkpt>
      <trkpt lat="43.77176" lon="3.7894">
        <ele>378.73087063153</ele>
        <time>2016-03-21T13:27:44Z</time>
      </trkpt>
      <trkpt lat="43.77082" lon="3.78966">
        <ele>372.93657607972</ele>
        <time>2016-03-21T13:29:24Z</time>
      </trkpt>
      <trkpt lat="43.77081" lon="3.78987">
        <ele>367.02572954189</ele>
        <time>2016-03-21T13:29:44Z</time>
      </trkpt>
      <trkpt lat="43.77083" lon="3.78988">
        <ele>367.02572954189</ele>
        <time>2016-03-21T13:30:01Z</time>
      </trkpt>
      <trkpt lat="43.77085" lon="3.78991">
        <ele>367.02572954189</ele>
        <time>2016-03-21T13:30:19Z</time>
      </trkpt>
      <trkpt lat="43.77085" lon="3.78997">
        <ele>367.02572954189</ele>
        <time>2016-03-21T13:30:55Z</time>
      </trkpt>
      <trkpt lat="43.77093" lon="3.79034">
        <ele>360.23825854726</ele>
        <time>2016-03-21T13:31:16Z</time>
      </trkpt>
      <trkpt lat="43.77099" lon="3.79059">
        <ele>353.8177511094</ele>
        <time>2016-03-21T13:32:16Z</time>
      </trkpt>
      <trkpt lat="43.77101" lon="3.79124">
        <ele>347.77673585857</ele>
        <time>2016-03-21T13:32:20Z</time>
      </trkpt>
      <trkpt lat="43.77095" lon="3.79136">
        <ele>341.64993140837</ele>
        <time>2016-03-21T13:32:33Z</time>
      </trkpt>
      <trkpt lat="43.77073" lon="3.79168">
        <ele>335.85642036322</ele>
        <time>2016-03-21T13:32:54Z</time>
      </trkpt>
      <trkpt lat="43.77057" lon="3.79188">
        <ele>329.76001600549</ele>
        <time>2016-03-21T13:33:11Z</time>
      </trkpt>
      <trkpt lat="43.77026" lon="3.79237">
        <ele>323.49226903</ele>
        <time>2016-03-21T13:34:09Z</time>
      </trkpt>
      <trkpt lat="43.77028" lon="3.79238">
        <ele>323.49226903</ele>
        <time>2016-03-21T13:34:19Z</time>
      </trkpt>
      <trkpt lat="43.77027" lon="3.79238">
        <ele>323.49226903</ele>
        <time>2016-03-21T13:34:24Z</time>
      </trkpt>
      <trkpt lat="43.77023" lon="3.79235">
        <ele>323.49226903</ele>
        <time>2016-03-21T13:36:49Z</time>
      </trkpt>
    </trkseg>
  </trk>
</gpx>